sensor_id;sensor_type;location;lat;lon;timestamp;P1;durP1;ratioP1;P2;durP2;ratioP2
6288;SDS011;3177;49.880;8.836;2023-05-16T00:01:34;18.17;;;14.20;;
6288;SDS011;3177;49.880;8.836;2023-05-16T00:04:02;18.27;;;13.27;;
6288;SDS011;3177;49.880;8.836;2023-05-16T00:06:29;22.63;;;15.43;;
6288;SDS011;3177;49.880;8.836;2023-05-16T00:08:57;18.37;;;14.27;;
6288;SDS011;3177;49.880;8.836;2023-05-16T00:11:24;19.77;;;14.73;;
6288;SDS011;3177;49.880;8.836;2023-05-16T00:13:52;19.63;;;13.93;;
6288;SDS011;3177;49.880;8.836;2023-05-16T00:16:20;20.93;;;15.17;;
6288;SDS011;3177;49.880;8.836;2023-05-16T00:18:49;21.17;;;15.33;;
6288;SDS011;3177;49.880;8.836;2023-05-16T00:21:17;20.03;;;14.00;;
6288;SDS011;3177;49.880;8.836;2023-05-16T00:23:44;22.43;;;14.70;;
6288;SDS011;3177;49.880;8.836;2023-05-16T00:26:11;21.77;;;14.50;;
6288;SDS011;3177;49.880;8.836;2023-05-16T00:28:38;21.70;;;15.23;;
6288;SDS011;3177;49.880;8.836;2023-05-16T00:31:07;22.80;;;15.37;;
6288;SDS011;3177;49.880;8.836;2023-05-16T00:33:34;18.27;;;14.80;;
6288;SDS011;3177;49.880;8.836;2023-05-16T00:36:01;19.50;;;14.63;;
6288;SDS011;3177;49.880;8.836;2023-05-16T00:38:28;21.17;;;14.83;;
6288;SDS011;3177;49.880;8.836;2023-05-16T00:40:55;24.23;;;15.87;;
6288;SDS011;3177;49.880;8.836;2023-05-16T00:43:22;21.00;;;15.33;;
6288;SDS011;3177;49.880;8.836;2023-05-16T00:45:49;20.67;;;14.80;;
6288;SDS011;3177;49.880;8.836;2023-05-16T00:48:18;22.07;;;16.13;;
6288;SDS011;3177;49.880;8.836;2023-05-16T00:50:45;22.63;;;16.03;;
6288;SDS011;3177;49.880;8.836;2023-05-16T00:53:13;24.03;;;15.97;;
6288;SDS011;3177;49.880;8.836;2023-05-16T00:55:40;22.47;;;16.23;;
6288;SDS011;3177;49.880;8.836;2023-05-16T00:58:08;24.67;;;16.83;;
6288;SDS011;3177;49.880;8.836;2023-05-16T01:00:35;28.07;;;16.60;;
6288;SDS011;3177;49.880;8.836;2023-05-16T01:03:03;33.27;;;18.83;;
6288;SDS011;3177;49.880;8.836;2023-05-16T01:05:32;22.47;;;16.33;;
6288;SDS011;3177;49.880;8.836;2023-05-16T01:07:59;29.27;;;17.87;;
6288;SDS011;3177;49.880;8.836;2023-05-16T01:10:26;27.43;;;18.03;;
6288;SDS011;3177;49.880;8.836;2023-05-16T01:12:58;26.30;;;18.90;;
6288;SDS011;3177;49.880;8.836;2023-05-16T01:15:27;27.90;;;18.30;;
6288;SDS011;3177;49.880;8.836;2023-05-16T01:17:55;30.33;;;18.93;;
6288;SDS011;3177;49.880;8.836;2023-05-16T01:20:27;30.30;;;19.43;;
6288;SDS011;3177;49.880;8.836;2023-05-16T01:23:04;29.27;;;19.17;;
6288;SDS011;3177;49.880;8.836;2023-05-16T01:25:38;26.43;;;18.73;;
6288;SDS011;3177;49.880;8.836;2023-05-16T01:28:13;28.57;;;19.30;;
6288;SDS011;3177;49.880;8.836;2023-05-16T01:30:41;26.03;;;19.83;;
6288;SDS011;3177;49.880;8.836;2023-05-16T01:33:08;29.17;;;18.07;;
6288;SDS011;3177;49.880;8.836;2023-05-16T01:35:37;30.00;;;19.37;;
6288;SDS011;3177;49.880;8.836;2023-05-16T01:38:08;29.77;;;19.50;;
6288;SDS011;3177;49.880;8.836;2023-05-16T01:40:38;26.77;;;19.80;;
6288;SDS011;3177;49.880;8.836;2023-05-16T01:43:10;30.10;;;20.90;;
6288;SDS011;3177;49.880;8.836;2023-05-16T01:45:40;29.33;;;20.30;;
6288;SDS011;3177;49.880;8.836;2023-05-16T01:48:12;29.87;;;19.27;;
6288;SDS011;3177;49.880;8.836;2023-05-16T01:50:41;30.80;;;20.60;;
6288;SDS011;3177;49.880;8.836;2023-05-16T01:53:10;28.97;;;19.63;;
6288;SDS011;3177;49.880;8.836;2023-05-16T01:55:41;30.23;;;20.57;;
6288;SDS011;3177;49.880;8.836;2023-05-16T01:58:09;29.47;;;20.47;;
6288;SDS011;3177;49.880;8.836;2023-05-16T02:00:36;26.63;;;18.83;;
6288;SDS011;3177;49.880;8.836;2023-05-16T02:03:05;29.27;;;20.10;;
6288;SDS011;3177;49.880;8.836;2023-05-16T02:05:32;28.70;;;19.57;;
6288;SDS011;3177;49.880;8.836;2023-05-16T02:07:59;31.37;;;20.17;;
6288;SDS011;3177;49.880;8.836;2023-05-16T02:10:26;30.77;;;19.93;;
6288;SDS011;3177;49.880;8.836;2023-05-16T02:12:53;28.93;;;19.53;;
6288;SDS011;3177;49.880;8.836;2023-05-16T02:15:20;28.43;;;20.43;;
6288;SDS011;3177;49.880;8.836;2023-05-16T02:17:48;28.37;;;20.23;;
6288;SDS011;3177;49.880;8.836;2023-05-16T02:20:16;31.00;;;20.50;;
6288;SDS011;3177;49.880;8.836;2023-05-16T02:22:43;27.10;;;20.53;;
6288;SDS011;3177;49.880;8.836;2023-05-16T02:25:12;30.90;;;19.83;;
6288;SDS011;3177;49.880;8.836;2023-05-16T02:27:39;30.63;;;19.83;;
6288;SDS011;3177;49.880;8.836;2023-05-16T02:30:07;30.93;;;20.60;;
6288;SDS011;3177;49.880;8.836;2023-05-16T02:32:34;27.40;;;20.33;;
6288;SDS011;3177;49.880;8.836;2023-05-16T02:35:02;29.70;;;21.13;;
6288;SDS011;3177;49.880;8.836;2023-05-16T02:37:30;30.83;;;19.97;;
6288;SDS011;3177;49.880;8.836;2023-05-16T02:39:57;29.37;;;21.13;;
6288;SDS011;3177;49.880;8.836;2023-05-16T02:42:24;29.20;;;19.87;;
6288;SDS011;3177;49.880;8.836;2023-05-16T02:44:53;28.43;;;19.27;;
6288;SDS011;3177;49.880;8.836;2023-05-16T02:47:20;28.70;;;19.80;;
6288;SDS011;3177;49.880;8.836;2023-05-16T02:49:47;28.63;;;19.83;;
6288;SDS011;3177;49.880;8.836;2023-05-16T02:52:16;31.90;;;19.77;;
6288;SDS011;3177;49.880;8.836;2023-05-16T02:54:44;29.10;;;20.63;;
6288;SDS011;3177;49.880;8.836;2023-05-16T02:57:11;28.93;;;20.33;;
6288;SDS011;3177;49.880;8.836;2023-05-16T02:59:39;28.57;;;19.43;;
6288;SDS011;3177;49.880;8.836;2023-05-16T03:02:06;28.20;;;19.77;;
6288;SDS011;3177;49.880;8.836;2023-05-16T03:04:33;30.27;;;20.53;;
6288;SDS011;3177;49.880;8.836;2023-05-16T03:07:01;30.67;;;21.37;;
6288;SDS011;3177;49.880;8.836;2023-05-16T03:09:28;29.83;;;20.60;;
6288;SDS011;3177;49.880;8.836;2023-05-16T03:11:56;28.33;;;20.07;;
6288;SDS011;3177;49.880;8.836;2023-05-16T03:14:23;25.67;;;19.60;;
6288;SDS011;3177;49.880;8.836;2023-05-16T03:16:50;29.63;;;20.17;;
6288;SDS011;3177;49.880;8.836;2023-05-16T03:19:17;30.83;;;19.70;;
6288;SDS011;3177;49.880;8.836;2023-05-16T03:21:44;28.93;;;18.83;;
6288;SDS011;3177;49.880;8.836;2023-05-16T03:24:11;29.67;;;20.17;;
6288;SDS011;3177;49.880;8.836;2023-05-16T03:26:38;27.80;;;19.17;;
6288;SDS011;3177;49.880;8.836;2023-05-16T03:29:07;30.73;;;19.90;;
6288;SDS011;3177;49.880;8.836;2023-05-16T03:31:34;29.03;;;20.33;;
6288;SDS011;3177;49.880;8.836;2023-05-16T03:34:01;29.37;;;19.30;;
6288;SDS011;3177;49.880;8.836;2023-05-16T03:36:28;26.73;;;19.47;;
6288;SDS011;3177;49.880;8.836;2023-05-16T03:38:55;29.17;;;18.77;;
6288;SDS011;3177;49.880;8.836;2023-05-16T03:41:22;25.17;;;18.20;;
6288;SDS011;3177;49.880;8.836;2023-05-16T03:43:50;26.73;;;18.70;;
6288;SDS011;3177;49.880;8.836;2023-05-16T03:46:18;27.70;;;18.57;;
6288;SDS011;3177;49.880;8.836;2023-05-16T03:48:46;25.17;;;18.37;;
6288;SDS011;3177;49.880;8.836;2023-05-16T03:51:13;27.57;;;19.13;;
6288;SDS011;3177;49.880;8.836;2023-05-16T03:53:40;26.63;;;18.50;;
6288;SDS011;3177;49.880;8.836;2023-05-16T03:56:07;29.73;;;18.83;;
6288;SDS011;3177;49.880;8.836;2023-05-16T03:58:34;28.20;;;18.77;;
6288;SDS011;3177;49.880;8.836;2023-05-16T04:01:01;27.83;;;19.40;;
6288;SDS011;3177;49.880;8.836;2023-05-16T04:03:30;27.30;;;18.57;;
6288;SDS011;3177;49.880;8.836;2023-05-16T04:05:58;26.50;;;18.70;;
6288;SDS011;3177;49.880;8.836;2023-05-16T04:08:25;30.03;;;19.13;;
6288;SDS011;3177;49.880;8.836;2023-05-16T04:10:52;25.37;;;18.70;;
6288;SDS011;3177;49.880;8.836;2023-05-16T04:13:19;26.00;;;18.47;;
6288;SDS011;3177;49.880;8.836;2023-05-16T04:15:46;28.17;;;18.47;;
6288;SDS011;3177;49.880;8.836;2023-05-16T04:18:13;25.13;;;17.93;;
6288;SDS011;3177;49.880;8.836;2023-05-16T04:20:42;27.23;;;18.43;;
6288;SDS011;3177;49.880;8.836;2023-05-16T04:23:11;26.20;;;20.00;;
6288;SDS011;3177;49.880;8.836;2023-05-16T04:25:39;26.60;;;19.00;;
6288;SDS011;3177;49.880;8.836;2023-05-16T04:28:06;28.83;;;18.60;;
6288;SDS011;3177;49.880;8.836;2023-05-16T04:30:34;23.87;;;16.60;;
6288;SDS011;3177;49.880;8.836;2023-05-16T04:33:01;28.33;;;19.43;;
6288;SDS011;3177;49.880;8.836;2023-05-16T04:35:28;26.43;;;17.83;;
6288;SDS011;3177;49.880;8.836;2023-05-16T04:37:57;29.23;;;18.27;;
6288;SDS011;3177;49.880;8.836;2023-05-16T04:40:24;31.23;;;20.03;;
6288;SDS011;3177;49.880;8.836;2023-05-16T04:42:51;31.53;;;18.90;;
6288;SDS011;3177;49.880;8.836;2023-05-16T04:45:19;29.13;;;18.20;;
6288;SDS011;3177;49.880;8.836;2023-05-16T04:47:46;28.90;;;18.80;;
6288;SDS011;3177;49.880;8.836;2023-05-16T04:50:13;30.63;;;18.27;;
6288;SDS011;3177;49.880;8.836;2023-05-16T04:52:42;30.47;;;19.17;;
6288;SDS011;3177;49.880;8.836;2023-05-16T04:55:10;32.13;;;19.13;;
6288;SDS011;3177;49.880;8.836;2023-05-16T04:57:38;29.67;;;18.30;;
6288;SDS011;3177;49.880;8.836;2023-05-16T05:00:07;31.00;;;18.97;;
6288;SDS011;3177;49.880;8.836;2023-05-16T05:02:36;30.60;;;18.70;;
6288;SDS011;3177;49.880;8.836;2023-05-16T05:05:03;28.00;;;18.70;;
6288;SDS011;3177;49.880;8.836;2023-05-16T05:07:31;29.73;;;18.90;;
6288;SDS011;3177;49.880;8.836;2023-05-16T05:09:58;28.73;;;18.53;;
6288;SDS011;3177;49.880;8.836;2023-05-16T05:12:26;28.43;;;18.83;;
6288;SDS011;3177;49.880;8.836;2023-05-16T05:14:53;29.43;;;17.53;;
6288;SDS011;3177;49.880;8.836;2023-05-16T05:17:21;33.07;;;18.43;;
6288;SDS011;3177;49.880;8.836;2023-05-16T05:19:48;27.13;;;17.47;;
6288;SDS011;3177;49.880;8.836;2023-05-16T05:22:15;33.13;;;17.63;;
6288;SDS011;3177;49.880;8.836;2023-05-16T05:24:42;30.03;;;17.90;;
6288;SDS011;3177;49.880;8.836;2023-05-16T05:27:09;28.00;;;17.40;;
6288;SDS011;3177;49.880;8.836;2023-05-16T05:29:38;30.50;;;18.63;;
6288;SDS011;3177;49.880;8.836;2023-05-16T05:32:05;29.37;;;17.93;;
6288;SDS011;3177;49.880;8.836;2023-05-16T05:34:33;31.90;;;17.77;;
6288;SDS011;3177;49.880;8.836;2023-05-16T05:37:00;29.83;;;16.67;;
6288;SDS011;3177;49.880;8.836;2023-05-16T05:39:27;26.27;;;16.67;;
6288;SDS011;3177;49.880;8.836;2023-05-16T05:41:54;24.50;;;16.70;;
6288;SDS011;3177;49.880;8.836;2023-05-16T05:44:22;29.77;;;16.60;;
6288;SDS011;3177;49.880;8.836;2023-05-16T05:46:51;24.00;;;15.33;;
6288;SDS011;3177;49.880;8.836;2023-05-16T05:49:18;25.37;;;15.90;;
6288;SDS011;3177;49.880;8.836;2023-05-16T05:51:46;23.70;;;15.00;;
6288;SDS011;3177;49.880;8.836;2023-05-16T05:54:15;25.17;;;14.87;;
6288;SDS011;3177;49.880;8.836;2023-05-16T05:56:42;24.43;;;15.03;;
6288;SDS011;3177;49.880;8.836;2023-05-16T05:59:10;26.07;;;15.70;;
6288;SDS011;3177;49.880;8.836;2023-05-16T06:01:37;22.27;;;14.63;;
6288;SDS011;3177;49.880;8.836;2023-05-16T06:04:05;20.20;;;14.63;;
6288;SDS011;3177;49.880;8.836;2023-05-16T06:06:32;27.27;;;14.50;;
6288;SDS011;3177;49.880;8.836;2023-05-16T06:08:59;20.33;;;13.50;;
6288;SDS011;3177;49.880;8.836;2023-05-16T06:11:26;16.90;;;12.37;;
6288;SDS011;3177;49.880;8.836;2023-05-16T06:13:53;15.70;;;11.67;;
6288;SDS011;3177;49.880;8.836;2023-05-16T06:16:22;20.73;;;12.30;;
6288;SDS011;3177;49.880;8.836;2023-05-16T06:18:50;18.27;;;12.30;;
6288;SDS011;3177;49.880;8.836;2023-05-16T06:21:18;15.90;;;10.67;;
6288;SDS011;3177;49.880;8.836;2023-05-16T06:23:45;18.27;;;10.77;;
6288;SDS011;3177;49.880;8.836;2023-05-16T06:26:12;16.77;;;10.30;;
6288;SDS011;3177;49.880;8.836;2023-05-16T06:28:40;14.53;;;9.63;;
6288;SDS011;3177;49.880;8.836;2023-05-16T06:31:07;16.80;;;10.20;;
6288;SDS011;3177;49.880;8.836;2023-05-16T06:33:34;12.07;;;8.67;;
6288;SDS011;3177;49.880;8.836;2023-05-16T06:36:01;11.33;;;8.53;;
6288;SDS011;3177;49.880;8.836;2023-05-16T06:38:30;10.43;;;8.10;;
6288;SDS011;3177;49.880;8.836;2023-05-16T06:40:57;10.23;;;7.70;;
6288;SDS011;3177;49.880;8.836;2023-05-16T06:43:24;10.83;;;8.03;;
6288;SDS011;3177;49.880;8.836;2023-05-16T06:45:51;9.47;;;7.93;;
6288;SDS011;3177;49.880;8.836;2023-05-16T06:48:18;8.30;;;6.60;;
6288;SDS011;3177;49.880;8.836;2023-05-16T06:50:46;10.37;;;6.83;;
6288;SDS011;3177;49.880;8.836;2023-05-16T06:53:13;7.43;;;6.17;;
6288;SDS011;3177;49.880;8.836;2023-05-16T06:55:41;6.37;;;5.10;;
6288;SDS011;3177;49.880;8.836;2023-05-16T06:58:08;5.40;;;4.90;;
6288;SDS011;3177;49.880;8.836;2023-05-16T07:00:35;7.90;;;5.10;;
6288;SDS011;3177;49.880;8.836;2023-05-16T07:03:03;5.40;;;4.90;;
6288;SDS011;3177;49.880;8.836;2023-05-16T07:05:30;5.50;;;4.17;;
6288;SDS011;3177;49.880;8.836;2023-05-16T07:07:57;4.40;;;4.00;;
6288;SDS011;3177;49.880;8.836;2023-05-16T07:10:24;4.90;;;4.40;;
6288;SDS011;3177;49.880;8.836;2023-05-16T07:12:52;3.63;;;3.30;;
6288;SDS011;3177;49.880;8.836;2023-05-16T07:15:20;3.87;;;3.47;;
6288;SDS011;3177;49.880;8.836;2023-05-16T07:17:47;4.53;;;2.63;;
6288;SDS011;3177;49.880;8.836;2023-05-16T07:20:15;3.23;;;2.87;;
6288;SDS011;3177;49.880;8.836;2023-05-16T07:22:42;3.93;;;3.23;;
6288;SDS011;3177;49.880;8.836;2023-05-16T07:25:09;4.37;;;2.93;;
6288;SDS011;3177;49.880;8.836;2023-05-16T07:27:38;4.00;;;2.60;;
6288;SDS011;3177;49.880;8.836;2023-05-16T07:30:10;3.43;;;2.53;;
6288;SDS011;3177;49.880;8.836;2023-05-16T07:32:38;2.90;;;2.70;;
6288;SDS011;3177;49.880;8.836;2023-05-16T07:35:05;2.60;;;2.40;;
6288;SDS011;3177;49.880;8.836;2023-05-16T07:37:33;2.50;;;2.30;;
6288;SDS011;3177;49.880;8.836;2023-05-16T07:40:00;2.60;;;2.40;;
6288;SDS011;3177;49.880;8.836;2023-05-16T07:42:28;2.30;;;2.20;;
6288;SDS011;3177;49.880;8.836;2023-05-16T07:44:55;3.20;;;2.90;;
6288;SDS011;3177;49.880;8.836;2023-05-16T07:47:23;2.47;;;2.37;;
6288;SDS011;3177;49.880;8.836;2023-05-16T07:49:51;2.57;;;2.37;;
6288;SDS011;3177;49.880;8.836;2023-05-16T07:52:18;2.97;;;2.67;;
6288;SDS011;3177;49.880;8.836;2023-05-16T07:54:45;3.10;;;2.90;;
6288;SDS011;3177;49.880;8.836;2023-05-16T07:57:12;3.73;;;2.70;;
6288;SDS011;3177;49.880;8.836;2023-05-16T07:59:39;3.90;;;3.50;;
6288;SDS011;3177;49.880;8.836;2023-05-16T08:02:06;2.87;;;2.67;;
6288;SDS011;3177;49.880;8.836;2023-05-16T08:04:35;2.80;;;2.60;;
6288;SDS011;3177;49.880;8.836;2023-05-16T08:07:02;3.30;;;3.07;;
6288;SDS011;3177;49.880;8.836;2023-05-16T08:09:29;3.37;;;2.83;;
6288;SDS011;3177;49.880;8.836;2023-05-16T08:11:56;3.93;;;3.07;;
6288;SDS011;3177;49.880;8.836;2023-05-16T08:14:27;2.83;;;2.63;;
6288;SDS011;3177;49.880;8.836;2023-05-16T08:16:54;4.53;;;3.17;;
6288;SDS011;3177;49.880;8.836;2023-05-16T08:19:21;3.03;;;2.73;;
6288;SDS011;3177;49.880;8.836;2023-05-16T08:21:50;3.03;;;2.67;;
6288;SDS011;3177;49.880;8.836;2023-05-16T08:24:17;2.83;;;2.63;;
6288;SDS011;3177;49.880;8.836;2023-05-16T08:26:44;2.90;;;2.60;;
6288;SDS011;3177;49.880;8.836;2023-05-16T08:29:11;2.83;;;2.60;;
6288;SDS011;3177;49.880;8.836;2023-05-16T08:31:38;2.90;;;2.70;;
6288;SDS011;3177;49.880;8.836;2023-05-16T08:34:05;2.80;;;2.60;;
6288;SDS011;3177;49.880;8.836;2023-05-16T08:36:33;2.87;;;2.67;;
6288;SDS011;3177;49.880;8.836;2023-05-16T08:39:01;2.40;;;2.17;;
6288;SDS011;3177;49.880;8.836;2023-05-16T08:41:30;1.90;;;1.80;;
6288;SDS011;3177;49.880;8.836;2023-05-16T08:43:57;1.47;;;1.47;;
6288;SDS011;3177;49.880;8.836;2023-05-16T08:46:24;2.03;;;1.53;;
6288;SDS011;3177;49.880;8.836;2023-05-16T08:48:52;1.60;;;1.50;;
6288;SDS011;3177;49.880;8.836;2023-05-16T08:51:19;1.50;;;1.40;;
6288;SDS011;3177;49.880;8.836;2023-05-16T08:53:49;2.03;;;1.30;;
6288;SDS011;3177;49.880;8.836;2023-05-16T08:56:19;1.30;;;1.30;;
6288;SDS011;3177;49.880;8.836;2023-05-16T08:58:47;1.40;;;1.30;;
6288;SDS011;3177;49.880;8.836;2023-05-16T09:01:14;1.30;;;1.30;;
6288;SDS011;3177;49.880;8.836;2023-05-16T09:03:42;1.20;;;1.20;;
6288;SDS011;3177;49.880;8.836;2023-05-16T09:06:09;1.53;;;1.20;;
6288;SDS011;3177;49.880;8.836;2023-05-16T09:08:36;1.77;;;1.67;;
6288;SDS011;3177;49.880;8.836;2023-05-16T09:11:04;1.40;;;1.40;;
6288;SDS011;3177;49.880;8.836;2023-05-16T09:13:32;2.37;;;1.27;;
6288;SDS011;3177;49.880;8.836;2023-05-16T09:16:09;1.70;;;1.60;;
6288;SDS011;3177;49.880;8.836;2023-05-16T09:18:36;1.43;;;1.40;;
6288;SDS011;3177;49.880;8.836;2023-05-16T09:21:04;1.97;;;1.43;;
6288;SDS011;3177;49.880;8.836;2023-05-16T09:23:31;1.80;;;1.70;;
6288;SDS011;3177;49.880;8.836;2023-05-16T09:25:59;1.50;;;1.23;;
6288;SDS011;3177;49.880;8.836;2023-05-16T09:28:26;2.60;;;1.50;;
6288;SDS011;3177;49.880;8.836;2023-05-16T09:30:54;2.03;;;1.70;;
6288;SDS011;3177;49.880;8.836;2023-05-16T09:33:23;1.93;;;1.70;;
6288;SDS011;3177;49.880;8.836;2023-05-16T09:35:53;2.40;;;1.40;;
6288;SDS011;3177;49.880;8.836;2023-05-16T09:38:21;2.57;;;1.50;;
6288;SDS011;3177;49.880;8.836;2023-05-16T09:40:49;2.93;;;1.60;;
6288;SDS011;3177;49.880;8.836;2023-05-16T09:43:16;2.50;;;1.70;;
6288;SDS011;3177;49.880;8.836;2023-05-16T09:45:44;2.13;;;1.40;;
6288;SDS011;3177;49.880;8.836;2023-05-16T09:48:13;1.97;;;1.70;;
6288;SDS011;3177;49.880;8.836;2023-05-16T09:50:45;1.57;;;1.47;;
6288;SDS011;3177;49.880;8.836;2023-05-16T09:53:13;2.40;;;1.60;;
6288;SDS011;3177;49.880;8.836;2023-05-16T09:55:40;3.83;;;1.63;;
6288;SDS011;3177;49.880;8.836;2023-05-16T09:58:07;3.33;;;2.13;;
6288;SDS011;3177;49.880;8.836;2023-05-16T10:00:35;2.20;;;1.60;;
6288;SDS011;3177;49.880;8.836;2023-05-16T10:03:02;2.60;;;1.40;;
6288;SDS011;3177;49.880;8.836;2023-05-16T10:05:31;4.43;;;2.00;;
6288;SDS011;3177;49.880;8.836;2023-05-16T10:07:58;3.50;;;1.83;;
6288;SDS011;3177;49.880;8.836;2023-05-16T10:10:26;5.90;;;2.07;;
6288;SDS011;3177;49.880;8.836;2023-05-16T10:12:53;3.40;;;1.70;;
6288;SDS011;3177;49.880;8.836;2023-05-16T10:15:22;3.60;;;2.00;;
6288;SDS011;3177;49.880;8.836;2023-05-16T10:17:50;5.87;;;2.20;;
6288;SDS011;3177;49.880;8.836;2023-05-16T10:20:17;2.10;;;1.90;;
6288;SDS011;3177;49.880;8.836;2023-05-16T10:22:46;3.07;;;2.63;;
6288;SDS011;3177;49.880;8.836;2023-05-16T10:25:16;3.37;;;2.20;;
6288;SDS011;3177;49.880;8.836;2023-05-16T10:27:46;4.40;;;2.00;;
6288;SDS011;3177;49.880;8.836;2023-05-16T10:30:13;1.67;;;1.57;;
6288;SDS011;3177;49.880;8.836;2023-05-16T10:32:41;4.47;;;1.90;;
6288;SDS011;3177;49.880;8.836;2023-05-16T10:35:09;5.67;;;2.13;;
6288;SDS011;3177;49.880;8.836;2023-05-16T10:37:36;2.10;;;1.60;;
6288;SDS011;3177;49.880;8.836;2023-05-16T10:40:05;3.27;;;2.07;;
6288;SDS011;3177;49.880;8.836;2023-05-16T10:42:33;1.57;;;1.47;;
6288;SDS011;3177;49.880;8.836;2023-05-16T10:45:14;1.90;;;1.50;;
6288;SDS011;3177;49.880;8.836;2023-05-16T10:47:49;2.80;;;1.90;;
6288;SDS011;3177;49.880;8.836;2023-05-16T10:50:29;4.50;;;1.67;;
6288;SDS011;3177;49.880;8.836;2023-05-16T10:52:56;2.20;;;1.60;;
6288;SDS011;3177;49.880;8.836;2023-05-16T10:55:39;3.10;;;1.60;;
6288;SDS011;3177;49.880;8.836;2023-05-16T10:58:06;3.87;;;1.70;;
6288;SDS011;3177;49.880;8.836;2023-05-16T11:00:34;2.07;;;1.70;;
6288;SDS011;3177;49.880;8.836;2023-05-16T11:03:03;3.20;;;1.90;;
6288;SDS011;3177;49.880;8.836;2023-05-16T11:05:30;3.17;;;1.80;;
6288;SDS011;3177;49.880;8.836;2023-05-16T11:08:01;3.20;;;1.83;;
6288;SDS011;3177;49.880;8.836;2023-05-16T11:10:33;2.57;;;1.80;;
6288;SDS011;3177;49.880;8.836;2023-05-16T11:13:06;6.57;;;2.03;;
6288;SDS011;3177;49.880;8.836;2023-05-16T11:15:33;3.23;;;2.03;;
6288;SDS011;3177;49.880;8.836;2023-05-16T11:18:04;5.77;;;2.07;;
6288;SDS011;3177;49.880;8.836;2023-05-16T11:20:32;3.03;;;2.20;;
6288;SDS011;3177;49.880;8.836;2023-05-16T11:25:55;5.53;;;1.97;;
6288;SDS011;3177;49.880;8.836;2023-05-16T11:28:24;3.80;;;2.13;;
6288;SDS011;3177;49.880;8.836;2023-05-16T11:30:52;3.57;;;1.90;;
6288;SDS011;3177;49.880;8.836;2023-05-16T11:33:21;4.67;;;1.80;;
6288;SDS011;3177;49.880;8.836;2023-05-16T11:36:02;2.13;;;2.00;;
6288;SDS011;3177;49.880;8.836;2023-05-16T11:38:29;4.10;;;2.40;;
6288;SDS011;3177;49.880;8.836;2023-05-16T11:41:00;6.57;;;2.00;;
6288;SDS011;3177;49.880;8.836;2023-05-16T11:43:35;5.60;;;1.90;;
6288;SDS011;3177;49.880;8.836;2023-05-16T11:46:02;5.23;;;1.77;;
6288;SDS011;3177;49.880;8.836;2023-05-16T11:48:29;2.57;;;2.00;;
6288;SDS011;3177;49.880;8.836;2023-05-16T11:50:56;3.87;;;1.80;;
6288;SDS011;3177;49.880;8.836;2023-05-16T11:53:23;4.57;;;1.60;;
6288;SDS011;3177;49.880;8.836;2023-05-16T11:55:52;3.90;;;1.77;;
6288;SDS011;3177;49.880;8.836;2023-05-16T11:58:19;6.70;;;2.20;;
6288;SDS011;3177;49.880;8.836;2023-05-16T12:00:48;4.63;;;2.10;;
6288;SDS011;3177;49.880;8.836;2023-05-16T12:03:16;3.93;;;1.60;;
6288;SDS011;3177;49.880;8.836;2023-05-16T12:05:48;4.10;;;2.10;;
6288;SDS011;3177;49.880;8.836;2023-05-16T12:08:17;4.93;;;1.90;;
6288;SDS011;3177;49.880;8.836;2023-05-16T12:10:45;6.10;;;2.57;;
6288;SDS011;3177;49.880;8.836;2023-05-16T12:13:13;3.97;;;2.03;;
6288;SDS011;3177;49.880;8.836;2023-05-16T12:15:41;4.60;;;1.90;;
6288;SDS011;3177;49.880;8.836;2023-05-16T12:18:09;5.27;;;2.10;;
6288;SDS011;3177;49.880;8.836;2023-05-16T12:20:37;3.77;;;1.90;;
6288;SDS011;3177;49.880;8.836;2023-05-16T12:23:04;3.67;;;2.03;;
6288;SDS011;3177;49.880;8.836;2023-05-16T12:25:32;3.53;;;1.60;;
6288;SDS011;3177;49.880;8.836;2023-05-16T12:28:01;6.43;;;2.10;;
6288;SDS011;3177;49.880;8.836;2023-05-16T12:30:29;3.43;;;1.53;;
6288;SDS011;3177;49.880;8.836;2023-05-16T12:32:57;3.40;;;1.73;;
6288;SDS011;3177;49.880;8.836;2023-05-16T12:35:28;7.20;;;1.80;;
6288;SDS011;3177;49.880;8.836;2023-05-16T12:37:57;3.43;;;1.60;;
6288;SDS011;3177;49.880;8.836;2023-05-16T12:40:26;3.17;;;1.53;;
6288;SDS011;3177;49.880;8.836;2023-05-16T12:42:54;4.63;;;1.73;;
6288;SDS011;3177;49.880;8.836;2023-05-16T12:45:21;3.80;;;1.70;;
6288;SDS011;3177;49.880;8.836;2023-05-16T12:47:49;2.03;;;1.50;;
6288;SDS011;3177;49.880;8.836;2023-05-16T12:50:16;4.60;;;1.60;;
6288;SDS011;3177;49.880;8.836;2023-05-16T12:52:49;2.10;;;1.47;;
6288;SDS011;3177;49.880;8.836;2023-05-16T12:55:16;2.50;;;1.30;;
6288;SDS011;3177;49.880;8.836;2023-05-16T12:57:43;3.13;;;1.43;;
6288;SDS011;3177;49.880;8.836;2023-05-16T13:00:12;3.27;;;1.83;;
6288;SDS011;3177;49.880;8.836;2023-05-16T13:02:41;4.40;;;1.57;;
6288;SDS011;3177;49.880;8.836;2023-05-16T13:05:08;7.57;;;2.97;;
6288;SDS011;3177;49.880;8.836;2023-05-16T13:07:36;5.07;;;1.70;;
6288;SDS011;3177;49.880;8.836;2023-05-16T13:10:06;4.67;;;1.43;;
6288;SDS011;3177;49.880;8.836;2023-05-16T13:12:35;2.17;;;1.33;;
6288;SDS011;3177;49.880;8.836;2023-05-16T13:15:02;6.10;;;1.80;;
6288;SDS011;3177;49.880;8.836;2023-05-16T13:17:31;5.95;;;1.52;;
6288;SDS011;3177;49.880;8.836;2023-05-16T13:19:58;3.80;;;1.48;;
6288;SDS011;3177;49.880;8.836;2023-05-16T13:22:25;2.28;;;1.42;;
6288;SDS011;3177;49.880;8.836;2023-05-16T13:24:52;3.17;;;1.23;;
6288;SDS011;3177;49.880;8.836;2023-05-16T13:27:21;2.17;;;1.52;;
6288;SDS011;3177;49.880;8.836;2023-05-16T13:29:48;4.70;;;1.58;;
6288;SDS011;3177;49.880;8.836;2023-05-16T13:32:17;4.35;;;1.35;;
6288;SDS011;3177;49.880;8.836;2023-05-16T13:34:44;4.45;;;1.30;;
6288;SDS011;3177;49.880;8.836;2023-05-16T13:37:11;3.45;;;1.40;;
6288;SDS011;3177;49.880;8.836;2023-05-16T13:39:38;1.02;;;0.98;;
6288;SDS011;3177;49.880;8.836;2023-05-16T13:42:06;3.00;;;1.48;;
6288;SDS011;3177;49.880;8.836;2023-05-16T13:44:34;2.88;;;1.45;;
6288;SDS011;3177;49.880;8.836;2023-05-16T13:47:02;2.33;;;1.25;;
6288;SDS011;3177;49.880;8.836;2023-05-16T13:49:29;1.85;;;1.25;;
6288;SDS011;3177;49.880;8.836;2023-05-16T13:51:56;5.78;;;1.40;;
6288;SDS011;3177;49.880;8.836;2023-05-16T13:54:23;4.28;;;1.35;;
6288;SDS011;3177;49.880;8.836;2023-05-16T13:56:50;2.50;;;1.10;;
6288;SDS011;3177;49.880;8.836;2023-05-16T13:59:17;2.03;;;1.35;;
6288;SDS011;3177;49.880;8.836;2023-05-16T14:01:45;4.10;;;1.58;;
6288;SDS011;3177;49.880;8.836;2023-05-16T14:04:12;4.93;;;1.20;;
6288;SDS011;3177;49.880;8.836;2023-05-16T14:06:40;8.52;;;2.20;;
6288;SDS011;3177;49.880;8.836;2023-05-16T14:09:07;3.40;;;1.17;;
6288;SDS011;3177;49.880;8.836;2023-05-16T14:11:34;1.17;;;1.00;;
6288;SDS011;3177;49.880;8.836;2023-05-16T14:14:01;3.55;;;1.70;;
6288;SDS011;3177;49.880;8.836;2023-05-16T14:16:28;1.67;;;1.20;;
6288;SDS011;3177;49.880;8.836;2023-05-16T14:18:58;2.75;;;1.10;;
6288;SDS011;3177;49.880;8.836;2023-05-16T14:21:26;4.45;;;2.08;;
6288;SDS011;3177;49.880;8.836;2023-05-16T14:23:53;1.70;;;0.95;;
6288;SDS011;3177;49.880;8.836;2023-05-16T14:26:20;1.52;;;1.15;;
6288;SDS011;3177;49.880;8.836;2023-05-16T14:28:49;4.35;;;1.60;;
6288;SDS011;3177;49.880;8.836;2023-05-16T14:31:16;1.17;;;0.90;;
6288;SDS011;3177;49.880;8.836;2023-05-16T14:33:43;1.80;;;1.00;;
6288;SDS011;3177;49.880;8.836;2023-05-16T14:36:12;3.40;;;1.30;;
6288;SDS011;3177;49.880;8.836;2023-05-16T14:38:39;2.15;;;1.10;;
6288;SDS011;3177;49.880;8.836;2023-05-16T14:41:06;1.08;;;0.90;;
6288;SDS011;3177;49.880;8.836;2023-05-16T14:43:33;2.92;;;1.30;;
6288;SDS011;3177;49.880;8.836;2023-05-16T14:46:02;2.55;;;1.35;;
6288;SDS011;3177;49.880;8.836;2023-05-16T14:48:29;2.72;;;1.17;;
6288;SDS011;3177;49.880;8.836;2023-05-16T14:50:57;2.40;;;1.20;;
6288;SDS011;3177;49.880;8.836;2023-05-16T14:53:25;1.27;;;0.93;;
6288;SDS011;3177;49.880;8.836;2023-05-16T14:55:52;4.63;;;1.33;;
6288;SDS011;3177;49.880;8.836;2023-05-16T14:58:19;3.47;;;1.20;;
6288;SDS011;3177;49.880;8.836;2023-05-16T15:00:46;1.20;;;0.90;;
6288;SDS011;3177;49.880;8.836;2023-05-16T15:03:15;4.40;;;1.17;;
6288;SDS011;3177;49.880;8.836;2023-05-16T15:05:42;3.33;;;1.10;;
6288;SDS011;3177;49.880;8.836;2023-05-16T15:08:09;1.40;;;0.90;;
6288;SDS011;3177;49.880;8.836;2023-05-16T15:10:38;2.72;;;1.40;;